Time;durP1;ratioP1;P1;durP2;ratioP2;P2;SDS_P1;SDS_P2;PMS_P1;PMS_P2;Temp;Humidity;BMP_temperature;BMP_pressure;BME280_temperature;BME280_humidity;BME280_pressure;Samples;Min_cycle;Max_cycle;Signal;HPM_P1;HPM_P2
2022/12/01 00:01:01;;;;;;;10.68;5.60;;;18.50;50.00;;;;;;5046860;28;20033;-70
2022/12/01 00:03:30;;;;;;;8.43;5.45;;;18.50;50.00;;;;;;5046925;28;20060;-70
2022/12/01 00:05:59;;;;;;;12.43;6.07;;;18.50;50.10;;;;;;5045365;28;20140;-70
2022/12/01 00:08:27;;;;;;;9.73;5.72;;;18.50;50.20;;;;;;5050100;28;20131;-69
2022/12/01 00:10:54;;;;;;;13.15;7.05;;;18.40;50.20;;;;;;5067090;28;20076;-69
2022/12/01 00:13:22;;;;;;;15.55;6.53;;;18.40;50.20;;;;;;5066455;28;20128;-70
2022/12/01 00:15:49;;;;;;;9.32;6.00;;;18.40;50.40;;;;;;5062391;28;20049;-71
2022/12/01 00:18:16;;;;;;;9.70;5.65;;;18.40;50.40;;;;;;5046760;28;20068;-70
2022/12/01 00:20:47;;;;;;;11.50;6.40;;;18.30;50.20;;;;;;5050023;28;20146;-70
2022/12/01 00:23:14;;;;;;;9.80;6.20;;;18.30;50.30;;;;;;5050278;28;20136;-70
2022/12/01 00:25:41;;;;;;;10.40;5.60;;;18.30;50.20;;;;;;5050518;28;20043;-70
2022/12/01 00:28:10;;;;;;;11.63;5.80;;;18.30;50.20;;;;;;5048992;28;20071;-70
2022/12/01 00:30:37;;;;;;;9.27;6.15;;;18.30;50.10;;;;;;5049353;28;20068;-70
2022/12/01 00:33:05;;;;;;;10.68;5.57;;;18.20;50.10;;;;;;5032283;28;20152;-68
2022/12/01 00:35:32;;;;;;;7.90;4.45;;;18.20;50.30;;;;;;5049994;28;20579;-67
2022/12/01 00:38:00;;;;;;;11.82;5.82;;;18.20;50.40;;;;;;5050247;28;20139;-68
2022/12/01 00:40:27;;;;;;;8.25;5.03;;;18.20;50.40;;;;;;5065307;28;20547;-67
2022/12/01 00:42:54;;;;;;;13.70;6.55;;;18.20;50.30;;;;;;5049101;28;20048;-68
2022/12/01 00:45:23;;;;;;;6.55;4.97;;;18.20;50.20;;;;;;5030762;28;20049;-69
2022/12/01 00:47:50;;;;;;;9.23;5.55;;;18.20;50.30;;;;;;5030414;28;20045;-69
2022/12/01 00:50:17;;;;;;;8.68;5.95;;;18.20;50.20;;;;;;5028763;28;20120;-67
2022/12/01 00:52:45;;;;;;;9.00;6.22;;;18.20;50.10;;;;;;5030060;28;20041;-68
2022/12/01 00:55:12;;;;;;;8.68;4.38;;;18.10;50.20;;;;;;5028709;28;20053;-70
2022/12/01 00:57:39;;;;;;;10.85;6.97;;;18.10;50.20;;;;;;5029784;28;20048;-69
2022/12/01 01:00:07;;;;;;;8.90;5.00;;;18.10;50.20;;;;;;5029863;28;20041;-68
2022/12/01 01:02:38;;;;;;;6.07;4.65;;;18.10;50.30;;;;;;5029875;28;20480;-68
2022/12/01 01:05:07;;;;;;;9.27;5.10;;;18.10;50.40;;;;;;5049432;28;20501;-68
2022/12/01 01:07:34;;;;;;;10.00;5.28;;;18.10;50.50;;;;;;5049847;28;20772;-68
2022/12/01 01:10:01;;;;;;;7.05;5.32;;;18.10;50.50;;;;;;5049803;28;20056;-69
2022/12/01 01:12:28;;;;;;;10.20;5.47;;;18.10;50.40;;;;;;5049344;28;20548;-69
2022/12/01 01:14:55;;;;;;;9.95;6.05;;;18.00;50.40;;;;;;5049469;28;20076;-68
2022/12/01 01:17:22;;;;;;;9.48;5.80;;;18.00;50.40;;;;;;5049444;28;20051;-69
2022/12/01 01:19:52;;;;;;;9.07;6.03;;;18.00;50.40;;;;;;5049593;28;20045;-69
2022/12/01 01:22:19;;;;;;;10.43;5.53;;;18.00;50.40;;;;;;5049419;28;20049;-69
2022/12/01 01:24:46;;;;;;;14.63;4.97;;;18.00;50.60;;;;;;5049594;28;20037;-69
2022/12/01 01:27:14;;;;;;;9.40;5.68;;;18.00;50.50;;;;;;5049296;28;20060;-69
2022/12/01 01:29:41;;;;;;;8.77;5.15;;;17.90;50.60;;;;;;5049209;28;20755;-68
2022/12/01 01:32:08;;;;;;;8.02;5.38;;;17.90;50.60;;;;;;5049107;28;20050;-68
2022/12/01 01:34:35;;;;;;;7.97;4.63;;;17.90;51.20;;;;;;5048736;28;20473;-69
2022/12/01 01:37:04;;;;;;;8.25;4.95;;;17.90;50.60;;;;;;5048858;28;20053;-68
2022/12/01 01:39:31;;;;;;;7.35;5.05;;;17.90;50.60;;;;;;5048460;28;20568;-69
2022/12/01 01:41:58;;;;;;;10.68;5.93;;;17.90;50.60;;;;;;5049074;28;20118;-68
2022/12/01 01:44:51;;;;;;;9.73;5.63;;;17.90;50.70;;;;;;5048682;28;20048;-69
2022/12/01 01:47:23;;;;;;;10.02;5.72;;;17.90;50.60;;;;;;5047437;28;20041;-69
2022/12/01 01:49:50;;;;;;;13.90;6.32;;;17.90;50.70;;;;;;5048741;28;20052;-69
2022/12/01 01:52:19;;;;;;;10.55;6.03;;;17.80;50.60;;;;;;5048800;28;20128;-69
2022/12/01 01:54:49;;;;;;;9.50;5.57;;;17.80;51.20;;;;;;5048343;28;20053;-69
2022/12/01 01:57:20;;;;;;;8.20;5.47;;;17.80;50.80;;;;;;5048789;28;20131;-70
2022/12/01 01:59:53;;;;;;;7.47;5.32;;;17.80;50.80;;;;;;5048611;28;20103;-70
2022/12/01 02:02:20;;;;;;;9.35;4.95;;;17.80;50.80;;;;;;5047745;28;20045;-70
2022/12/01 02:04:51;;;;;;;7.68;4.95;;;17.80;50.80;;;;;;5047078;28;20043;-70
2022/12/01 02:07:20;;;;;;;9.20;5.95;;;17.70;50.70;;;;;;5048712;28;20045;-69
2022/12/01 02:09:47;;;;;;;8.30;4.70;;;17.70;50.70;;;;;;5046673;28;20044;-70
2022/12/01 02:12:30;;;;;;;11.23;7.35;;;17.70;50.70;;;;;;5048820;28;20047;-69
2022/12/01 02:15:08;;;;;;;7.38;5.43;;;17.70;50.70;;;;;;5048419;28;20067;-69
2022/12/01 02:17:45;;;;;;;10.38;5.55;;;17.70;50.60;;;;;;5048375;28;20036;-70
2022/12/01 02:20:37;;;;;;;8.88;5.30;;;17.70;50.60;;;;;;5048303;28;20048;-70
2022/12/01 02:23:47;;;;;;;10.88;5.60;;;17.70;50.60;;;;;;5042339;28;20559;-71
2022/12/01 02:26:38;;;;;;;8.77;5.45;;;17.70;50.60;;;;;;5048209;28;20509;-70
2022/12/01 02:29:37;;;;;;;6.90;4.80;;;17.70;50.60;;;;;;5048162;28;20598;-71
2022/12/01 02:32:13;;;;;;;9.90;5.22;;;17.70;50.60;;;;;;5048134;28;20049;-69
2022/12/01 02:34:44;;;;;;;8.88;6.57;;;17.70;50.60;;;;;;5047825;28;20055;-69
2022/12/01 02:37:18;;;;;;;11.30;6.45;;;17.70;50.60;;;;;;5047987;28;20048;-69
2022/12/01 02:39:54;;;;;;;7.88;5.35;;;17.70;50.50;;;;;;5047412;28;20060;-69
2022/12/01 02:45:14;;;;;;;6.97;5.28;;;17.70;50.60;;;;;;5047592;28;20040;-69
2022/12/01 02:47:45;;;;;;;7.95;5.75;;;17.70;50.40;;;;;;5044574;28;20049;-68
2022/12/01 02:50:13;;;;;;;12.00;5.75;;;17.70;50.50;;;;;;5047930;28;20394;-70
2022/12/01 02:52:41;;;;;;;7.43;4.32;;;17.70;50.50;;;;;;5047576;28;20049;-71
2022/12/01 02:55:09;;;;;;;8.20;5.47;;;17.70;50.50;;;;;;5047190;28;20123;-70
2022/12/01 02:57:36;;;;;;;8.23;4.03;;;17.70;50.60;;;;;;5047606;28;20119;-70
2022/12/01 03:00:05;;;;;;;6.70;5.07;;;17.70;50.50;;;;;;5047594;28;20098;-70
2022/12/01 03:02:41;;;;;;;8.65;5.13;;;17.70;50.40;;;;;;5047321;28;20049;-70
2022/12/01 03:05:14;;;;;;;;;;;17.70;50.40;;;;;;5028440;28;20468;-68
2022/12/01 03:07:56;;;;;;;8.20;4.20;;;17.70;50.50;;;;;;5027205;28;19928;-68
2022/12/01 03:10:31;;;;;;;9.60;4.95;;;17.70;50.50;;;;;;5027674;28;20045;-69
2022/12/01 03:13:11;;;;;;;7.35;5.03;;;17.70;50.40;;;;;;5027547;28;20583;-68
2022/12/01 03:15:47;;;;;;;12.95;5.10;;;17.70;50.50;;;;;;5027582;28;20064;-68
2022/12/01 03:18:25;;;;;;;4.97;4.05;;;17.70;50.50;;;;;;5032461;28;20041;-68
2022/12/01 03:20:58;;;;;;;7.30;4.53;;;17.70;50.40;;;;;;5047318;28;20060;-68
2022/12/01 03:23:30;;;;;;;7.60;5.28;;;17.70;50.60;;;;;;5047567;28;20076;-69
2022/12/01 03:25:59;;;;;;;8.38;4.45;;;17.70;50.60;;;;;;5047060;28;20048;-68
2022/12/01 03:28:32;;;;;;;6.78;4.40;;;17.70;50.50;;;;;;5047243;28;20037;-68
2022/12/01 03:31:05;;;;;;;7.30;4.65;;;17.70;50.50;;;;;;5045872;28;20091;-68
2022/12/01 03:33:38;;;;;;;9.18;5.72;;;17.70;50.60;;;;;;5046680;28;20045;-69
2022/12/01 03:36:13;;;;;;;5.85;4.43;;;17.70;50.50;;;;;;5047041;28;20615;-69
2022/12/01 03:38:46;;;;;;;14.73;5.50;;;17.70;50.60;;;;;;5047362;28;20524;-68
2022/12/01 03:41:19;;;;;;;9.65;5.68;;;17.70;50.70;;;;;;5047302;28;20045;-68
2022/12/01 03:43:52;;;;;;;12.38;6.13;;;17.70;50.70;;;;;;5046857;28;20094;-67
2022/12/01 03:46:25;;;;;;;8.70;5.50;;;17.70;50.80;;;;;;5047166;28;20103;-69
2022/12/01 03:48:53;;;;;;;4.10;3.65;;;17.70;50.70;;;;;;5047433;28;20127;-69
2022/12/01 03:51:30;;;;;;;9.43;5.78;;;17.60;50.80;;;;;;5046974;28;20044;-69
2022/12/01 03:54:05;;;;;;;6.07;4.38;;;17.60;50.80;;;;;;5046363;28;20045;-70
2022/12/01 03:56:37;;;;;;;13.00;5.55;;;17.70;50.80;;;;;;5050792;28;20158;-69
2022/12/01 03:59:07;;;;;;;9.30;6.00;;;17.60;50.80;;;;;;5050213;28;20147;-69
2022/12/01 04:01:34;;;;;;;9.05;5.40;;;17.60;50.90;;;;;;5051081;28;20057;-69
2022/12/01 04:04:07;;;;;;;7.85;4.90;;;17.60;50.80;;;;;;5051034;28;20433;-69
2022/12/01 04:06:35;;;;;;;8.20;4.95;;;17.60;50.90;;;;;;5050671;28;20052;-69
2022/12/01 04:09:02;;;;;;;6.80;5.15;;;17.60;50.80;;;;;;5049524;28;20080;-70
2022/12/01 04:14:11;;;;;;;7.90;5.00;;;17.60;50.80;;;;;;4988508;28;20046;-69
2022/12/01 04:16:38;;;;;;;7.10;4.25;;;17.60;50.90;;;;;;4988672;28;20061;-69
2022/12/01 04:19:05;;;;;;;9.27;6.03;;;17.60;51.00;;;;;;4988421;28;20490;-70
2022/12/01 04:21:32;;;;;;;12.80;5.93;;;17.60;51.00;;;;;;4988725;28;20057;-70
2022/12/01 04:24:00;;;;;;;10.75;5.63;;;17.60;51.00;;;;;;4995074;28;20046;-69
2022/12/01 04:26:28;;;;;;;9.10;4.93;;;17.60;50.90;;;;;;5002806;28;20152;-69
2022/12/01 04:28:55;;;;;;;7.88;4.85;;;17.60;51.00;;;;;;4980590;28;20054;-69
2022/12/01 04:31:22;;;;;;;8.93;5.53;;;17.60;51.10;;;;;;4973974;28;20050;-69
2022/12/01 04:33:49;;;;;;;6.93;5.47;;;17.60;51.10;;;;;;4988130;28;20490;-70
2022/12/01 04:36:16;;;;;;;9.82;5.88;;;17.60;51.10;;;;;;4988262;28;20138;-69
2022/12/01 04:38:43;;;;;;;9.70;4.97;;;17.60;51.10;;;;;;4987651;28;20129;-69
2022/12/01 04:41:13;;;;;;;12.07;6.00;;;17.60;51.10;;;;;;4988294;28;20050;-70
2022/12/01 04:43:40;;;;;;;11.25;6.07;;;17.60;51.10;;;;;;4987760;28;20143;-70
2022/12/01 04:46:08;;;;;;;9.30;5.47;;;17.60;51.10;;;;;;4971510;28;20128;-70
2022/12/01 04:48:35;;;;;;;7.45;5.13;;;17.60;51.20;;;;;;4987763;28;20541;-71
2022/12/01 04:51:03;;;;;;;10.48;6.47;;;17.60;51.30;;;;;;5007144;28;20064;-70
2022/12/01 04:53:30;;;;;;;10.68;6.18;;;17.60;51.30;;;;;;5070206;28;20497;-70
2022/12/01 04:55:59;;;;;;;8.55;5.30;;;17.60;51.30;;;;;;5069858;28;20045;-70
2022/12/01 04:58:28;;;;;;;10.43;6.90;;;17.60;51.30;;;;;;5069814;28;20516;-70
2022/12/01 05:00:55;;;;;;;7.85;4.55;;;17.60;51.30;;;;;;5062557;28;20048;-68
2022/12/01 05:03:22;;;;;;;10.25;5.25;;;17.60;51.40;;;;;;5049676;28;20111;-70
2022/12/01 05:05:49;;;;;;;9.45;5.82;;;17.60;51.30;;;;;;5047938;28;20494;-69
2022/12/01 05:08:16;;;;;;;9.90;5.65;;;17.60;51.30;;;;;;5050054;28;20056;-69
2022/12/01 05:10:43;;;;;;;10.10;6.32;;;17.60;51.20;;;;;;5049943;28;20123;-71
2022/12/01 05:13:10;;;;;;;8.07;5.22;;;17.60;51.10;;;;;;5050046;28;20049;-69
2022/12/01 05:15:38;;;;;;;10.15;5.68;;;17.60;51.10;;;;;;5049826;28;20051;-70
2022/12/01 05:18:06;;;;;;;11.70;6.03;;;17.60;51.00;;;;;;5049458;28;20091;-69
2022/12/01 05:23:17;;;;;;;11.00;5.75;;;17.60;51.60;;;;;;5049499;28;20056;-68
2022/12/01 05:25:44;;;;;;;10.30;5.30;;;17.60;51.10;;;;;;5049296;28;20055;-68
2022/12/01 05:28:11;;;;;;;10.40;5.55;;;17.50;51.00;;;;;;5049132;28;20049;-68
2022/12/01 05:30:40;;;;;;;12.25;6.07;;;17.60;51.10;;;;;;5048882;28;20451;-68
2022/12/01 05:33:07;;;;;;;10.27;5.25;;;17.60;50.90;;;;;;5048506;28;20147;-70
2022/12/01 05:35:34;;;;;;;8.60;5.10;;;17.60;51.10;;;;;;5049138;28;20479;-68
2022/12/01 05:38:02;;;;;;;10.05;6.00;;;17.60;51.10;;;;;;5048566;28;20140;-69
2022/12/01 05:40:30;;;;;;;10.32;5.53;;;17.60;50.90;;;;;;5048929;28;20043;-68
2022/12/01 05:42:57;;;;;;;10.98;5.60;;;17.60;50.90;;;;;;5047107;28;20055;-69
2022/12/01 05:45:24;;;;;;;10.10;5.03;;;17.60;51.50;;;;;;5049011;28;20047;-69
2022/12/01 05:47:55;;;;;;;7.63;5.32;;;17.60;50.90;;;;;;5048573;28;20103;-69
2022/12/01 05:50:23;;;;;;;13.85;6.43;;;17.60;50.90;;;;;;5048994;28;20045;-68
2022/12/01 05:52:50;;;;;;;10.95;5.88;;;17.60;50.80;;;;;;5046926;28;20505;-69
2022/12/01 05:55:18;;;;;;;10.57;4.97;;;17.60;50.90;;;;;;5048772;28;20041;-68
2022/12/01 05:57:45;;;;;;;11.15;5.25;;;17.60;50.90;;;;;;5047224;28;20037;-68
2022/12/01 06:00:13;;;;;;;17.02;9.85;;;17.60;50.90;;;;;;5048643;28;20076;-70
2022/12/01 06:02:40;;;;;;;23.13;13.52;;;17.60;51.00;;;;;;5046759;28;20047;-70
2022/12/01 06:05:09;;;;;;;27.75;15.73;;;17.60;50.70;;;;;;5027821;28;20136;-69
2022/12/01 06:07:39;;;;;;;28.60;18.10;;;17.60;50.50;;;;;;5048385;28;20045;-66
2022/12/01 06:10:08;;;;;;;30.95;18.15;;;17.60;50.60;;;;;;5029010;28;20510;-67
2022/12/01 06:12:35;;;;;;;30.88;17.70;;;17.60;50.70;;;;;;5048231;28;20029;-69
2022/12/01 06:15:02;;;;;;;28.45;16.98;;;17.60;50.60;;;;;;5047635;28;20674;-68
2022/12/01 06:17:29;;;;;;;27.45;17.58;;;17.60;50.60;;;;;;5047550;28;20505;-69
2022/12/01 06:19:56;;;;;;;31.83;18.33;;;17.60;50.70;;;;;;5046933;28;20076;-68
2022/12/01 06:22:25;;;;;;;27.05;16.08;;;17.60;50.70;;;;;;5047939;28;20114;-68
2022/12/01 06:24:52;;;;;;;25.52;16.17;;;17.70;50.60;;;;;;5048398;28;20430;-69
2022/12/01 06:27:19;;;;;;;27.33;15.43;;;17.60;50.70;;;;;;5048447;28;20044;-69
2022/12/01 06:29:47;;;;;;;26.38;14.82;;;17.60;50.60;;;;;;5048031;28;20131;-69
2022/12/01 06:32:14;;;;;;;26.55;15.25;;;17.60;50.80;;;;;;5047692;28;20394;-69
2022/12/01 06:34:42;;;;;;;23.00;14.18;;;17.60;50.70;;;;;;5046808;28;20143;-69
2022/12/01 06:37:09;;;;;;;23.42;14.32;;;17.60;50.80;;;;;;5048145;28;20040;-69
2022/12/01 06:39:38;;;;;;;24.85;14.02;;;17.60;50.90;;;;;;5043351;28;20571;-69
2022/12/01 06:42:05;;;;;;;25.90;13.98;;;17.60;50.90;;;;;;5047065;28;20037;-68
2022/12/01 06:44:32;;;;;;;20.58;13.38;;;17.60;50.90;;;;;;5047228;28;20053;-67
2022/12/01 06:46:59;;;;;;;19.80;12.10;;;17.60;51.00;;;;;;5047954;28;20048;-67
2022/12/01 06:49:26;;;;;;;18.95;12.38;;;17.60;51.10;;;;;;5048194;28;20041;-70
2022/12/01 06:51:53;;;;;;;23.55;12.77;;;17.60;51.10;;;;;;5047838;28;20037;-68
2022/12/01 06:54:20;;;;;;;18.80;11.57;;;17.60;51.00;;;;;;5047896;28;20132;-67
2022/12/01 06:56:49;;;;;;;18.83;10.48;;;17.60;51.10;;;;;;5028749;28;20041;-69
2022/12/01 06:59:16;;;;;;;18.55;10.30;;;17.60;51.10;;;;;;5047163;28;20098;-68
2022/12/01 07:01:43;;;;;;;16.83;10.82;;;17.60;51.10;;;;;;5047498;28;20528;-66
2022/12/01 07:04:10;;;;;;;16.90;10.25;;;17.60;51.00;;;;;;5047789;28;20124;-69
2022/12/01 07:06:37;;;;;;;14.35;9.48;;;17.60;50.90;;;;;;5047644;28;20793;-66
2022/12/01 07:09:04;;;;;;;17.65;10.45;;;17.60;50.90;;;;;;5047438;28;20041;-69
2022/12/01 07:11:34;;;;;;;14.38;8.60;;;17.60;51.00;;;;;;5047772;28;20141;-70
2022/12/01 07:14:03;;;;;;;12.02;7.65;;;17.50;51.00;;;;;;5047122;28;20049;-68
2022/12/01 07:16:30;;;;;;;12.05;7.32;;;17.60;50.90;;;;;;5047138;28;20047;-69
2022/12/01 07:18:58;;;;;;;14.77;6.95;;;17.60;51.00;;;;;;5047400;28;20040;-67
2022/12/01 07:21:25;;;;;;;12.73;8.13;;;17.60;50.90;;;;;;5047360;28;20757;-70
2022/12/01 07:23:53;;;;;;;12.85;7.70;;;17.60;51.00;;;;;;5047089;28;20513;-67
2022/12/01 07:26:20;;;;;;;10.95;7.25;;;17.60;51.00;;;;;;5047136;28;20047;-67
2022/12/01 07:28:47;;;;;;;12.10;7.50;;;17.60;51.00;;;;;;5046754;28;20155;-66
2022/12/01 07:31:17;;;;;;;9.80;6.68;;;17.60;51.00;;;;;;5047206;28;20043;-67
2022/12/01 07:33:44;;;;;;;11.35;7.03;;;17.60;50.90;;;;;;5048198;28;20424;-67
2022/12/01 07:36:12;;;;;;;10.65;7.18;;;17.60;51.00;;;;;;5048223;28;20045;-66
2022/12/01 07:38:40;;;;;;;10.63;6.55;;;17.60;50.90;;;;;;5047250;28;20098;-66
2022/12/01 07:41:08;;;;;;;11.02;7.07;;;17.60;51.00;;;;;;5046334;28;20037;-66
2022/12/01 07:43:36;;;;;;;10.38;5.75;;;17.60;51.00;;;;;;5046330;28;20095;-66
2022/12/01 07:46:06;;;;;;;10.43;6.43;;;17.60;51.00;;;;;;5046335;28;20045;-66
2022/12/01 07:48:35;;;;;;;10.75;6.10;;;17.60;51.00;;;;;;5047040;28;20049;-66
2022/12/01 07:51:03;;;;;;;10.98;5.97;;;17.60;50.90;;;;;;5047576;28;20040;-66
2022/12/01 07:53:30;;;;;;;10.07;5.40;;;17.60;51.00;;;;;;5047102;28;20428;-67
2022/12/01 07:55:57;;;;;;;11.55;6.18;;;17.60;51.00;;;;;;5046988;28;20053;-67
2022/12/01 07:58:25;;;;;;;10.43;5.43;;;17.60;51.00;;;;;;5046491;28;20123;-68
2022/12/01 08:00:52;;;;;;;7.75;5.22;;;17.60;51.00;;;;;;5045491;28;20099;-67
2022/12/01 08:03:20;;;;;;;11.80;7.40;;;17.60;51.00;;;;;;5046932;28;20045;-67
2022/12/01 08:05:57;;;;;;;17.92;5.45;;;17.60;51.00;;;;;;5045648;28;20413;-60
2022/12/01 08:08:25;;;;;;;8.60;5.68;;;17.60;51.40;;;;;;5045999;28;20451;-60
2022/12/01 08:10:53;;;;;;;16.33;5.80;;;17.60;51.70;;;;;;5044154;28;20056;-65
2022/12/01 08:13:20;;;;;;;9.95;5.68;;;17.70;51.80;;;;;;5048946;28;20029;-66
2022/12/01 08:15:48;;;;;;;12.52;6.15;;;17.80;52.20;;;;;;5052537;28;20048;-77
2022/12/01 08:18:16;;;;;;;8.98;5.63;;;17.90;52.00;;;;;;5029276;28;20091;-71
2022/12/01 08:20:43;;;;;;;8.25;6.10;;;18.10;51.70;;;;;;5051087;28;20055;-75
2022/12/01 08:23:11;;;;;;;7.85;5.63;;;18.10;51.30;;;;;;5046916;28;20197;-61
2022/12/01 08:25:38;;;;;;;11.52;6.28;;;18.30;51.10;;;;;;5045929;28;20051;-61
2022/12/01 08:28:05;;;;;;;7.82;5.05;;;18.30;50.70;;;;;;5049813;28;20098;-70
2022/12/01 08:30:33;;;;;;;10.00;5.53;;;18.40;50.50;;;;;;5045430;28;20049;-68
2022/12/01 08:33:00;;;;;;;8.38;4.63;;;18.50;50.20;;;;;;5045957;28;20041;-69
2022/12/01 08:35:27;;;;;;;8.85;4.65;;;18.60;50.00;;;;;;5046459;28;20129;-71
2022/12/01 08:37:54;;;;;;;6.05;4.60;;;18.60;49.80;;;;;;5041730;28;20041;-69
2022/12/01 08:40:23;;;;;;;10.43;5.97;;;18.70;49.60;;;;;;5035285;28;20052;-69
2022/12/01 08:42:52;;;;;;;7.90;6.35;;;18.80;49.50;;;;;;5049851;28;20048;-66
2022/12/01 08:45:19;;;;;;;8.57;4.60;;;18.80;49.30;;;;;;5055903;28;20465;-68
2022/12/01 08:47:47;;;;;;;7.05;4.32;;;18.80;49.10;;;;;;5049848;28;20072;-68
2022/12/01 08:50:14;;;;;;;7.53;4.20;;;18.90;49.30;;;;;;5048544;28;20509;-66
2022/12/01 08:52:41;;;;;;;6.28;4.00;;;18.90;48.70;;;;;;5048573;28;20588;-68
2022/12/01 08:55:09;;;;;;;7.28;4.93;;;19.00;48.50;;;;;;5049511;28;20037;-65
2022/12/01 08:57:38;;;;;;;6.47;4.35;;;19.10;48.40;;;;;;5049562;28;20538;-66
2022/12/01 09:00:07;;;;;;;7.53;4.85;;;19.10;48.30;;;;;;5031873;28;20143;-71
2022/12/01 09:02:34;;;;;;;7.28;5.05;;;19.20;48.10;;;;;;5049554;28;20044;-65
2022/12/01 09:05:02;;;;;;;6.40;4.03;;;19.20;47.90;;;;;;5048272;28;20053;-70
2022/12/01 09:07:29;;;;;;;8.50;4.28;;;19.30;47.80;;;;;;5049251;28;20055;-63
2022/12/01 09:09:56;;;;;;;7.45;4.22;;;19.30;47.80;;;;;;5049125;28;20135;-64
2022/12/01 09:12:23;;;;;;;5.93;4.18;;;19.40;47.90;;;;;;5047290;28;20127;-65
2022/12/01 09:14:51;;;;;;;6.00;3.67;;;19.40;47.60;;;;;;5049474;28;20717;-64
2022/12/01 09:17:19;;;;;;;7.20;4.60;;;19.50;47.60;;;;;;5049217;28;20053;-64
2022/12/01 09:19:46;;;;;;;7.30;3.13;;;19.50;47.40;;;;;;5053525;28;20075;-66
2022/12/01 09:22:13;;;;;;;6.30;3.72;;;19.60;47.10;;;;;;5049648;28;20114;-67
2022/12/01 09:24:40;;;;;;;6.10;4.53;;;19.60;47.10;;;;;;5049363;28;20136;-66
2022/12/01 09:27:07;;;;;;;8.15;5.40;;;19.60;46.90;;;;;;5049064;28;20056;-70
2022/12/01 09:29:34;;;;;;;8.68;5.93;;;19.70;46.60;;;;;;5049119;28;20128;-68
2022/12/01 09:32:03;;;;;;;12.07;5.03;;;19.70;46.50;;;;;;5049624;28;20063;-74
2022/12/01 09:34:30;;;;;;;6.25;4.13;;;19.70;46.40;;;;;;5030072;28;20190;-63
2022/12/01 09:36:58;;;;;;;8.23;4.70;;;19.80;46.40;;;;;;5048457;28;20128;-62
2022/12/01 09:39:25;;;;;;;6.80;4.15;;;19.80;46.30;;;;;;5048503;28;20072;-62
2022/12/01 09:41:57;;;;;;;8.18;4.70;;;19.80;46.20;;;;;;5047945;28;20525;-62
2022/12/01 09:44:36;;;;;;;4.80;3.80;;;19.80;46.10;;;;;;5048153;28;20486;-63
2022/12/01 09:47:11;;;;;;;5.28;3.33;;;19.90;46.20;;;;;;5048546;28;20095;-61
2022/12/01 09:49:53;;;;;;;4.78;3.65;;;19.90;46.10;;;;;;5048210;28;20123;-65
2022/12/01 09:52:21;;;;;;;5.10;4.03;;;20.00;46.10;;;;;;5048506;28;20072;-69
2022/12/01 09:54:54;;;;;;;6.90;4.38;;;20.00;46.10;;;;;;5048378;28;20037;-68
2022/12/01 09:57:29;;;;;;;9.95;4.93;;;20.00;45.90;;;;;;5048716;28;20070;-63
2022/12/01 09:59:58;;;;;;;7.60;4.97;;;20.00;45.80;;;;;;5031671;28;20118;-64
2022/12/01 10:02:34;;;;;;;4.88;4.35;;;20.10;45.70;;;;;;5048394;28;20037;-65
2022/12/01 10:05:02;;;;;;;;;;;20.10;45.60;;;;;;5048817;28;20095;-66
2022/12/01 10:07:33;;;;;;;7.13;4.50;;;20.10;45.90;;;;;;5047733;28;19979;-65
2022/12/01 10:10:05;;;;;;;6.68;4.72;;;20.10;45.80;;;;;;5048199;28;20052;-66
2022/12/01 10:12:34;;;;;;;6.70;3.47;;;20.10;45.60;;;;;;5048144;28;20094;-64
2022/12/01 10:15:15;;;;;;;7.47;4.53;;;20.20;45.50;;;;;;5047951;28;20037;-63
2022/12/01 10:17:52;;;;;;;7.93;4.00;;;20.20;45.40;;;;;;5048068;28;20053;-64
2022/12/01 10:20:25;;;;;;;3.85;3.05;;;20.20;45.30;;;;;;5047576;28;20129;-63
2022/12/01 10:23:12;;;;;;;6.50;4.15;;;20.30;45.40;;;;;;5047862;28;20047;-67
2022/12/01 10:25:49;;;;;;;6.70;3.13;;;20.30;45.10;;;;;;5045110;28;20108;-63
2022/12/01 10:28:38;;;;;;;7.10;3.97;;;20.30;45.00;;;;;;5046878;28;20073;-59
2022/12/01 10:31:13;;;;;;;3.90;3.30;;;20.30;45.00;;;;;;5045376;28;20116;-63
2022/12/01 10:33:50;;;;;;;11.53;5.47;;;20.30;44.90;;;;;;5050565;28;20056;-66
2022/12/01 10:36:17;;;;;;;5.60;4.03;;;20.40;44.80;;;;;;5042964;28;20295;-62
2022/12/01 10:38:44;;;;;;;5.50;3.47;;;20.40;44.70;;;;;;5045728;28;20041;-62
2022/12/01 10:41:15;;;;;;;6.50;4.72;;;20.40;44.50;;;;;;5059877;28;20798;-62
2022/12/01 10:43:45;;;;;;;5.72;4.25;;;20.40;44.40;;;;;;5046987;28;20033;-64
2022/12/01 10:46:21;;;;;;;4.28;3.60;;;20.40;44.20;;;;;;5047775;28;20045;-64
2022/12/01 10:48:58;;;;;;;7.63;3.78;;;20.50;44.10;;;;;;5046147;28;20037;-68
2022/12/01 10:51:27;;;;;;;4.57;3.08;;;20.50;44.10;;;;;;5044316;28;20079;-68
2022/12/01 10:53:59;;;;;;;6.93;3.67;;;20.50;44.10;;;;;;5046052;28;20055;-69
2022/12/01 10:56:26;;;;;;;11.25;3.20;;;20.50;43.90;;;;;;5047166;28;20131;-68
2022/12/01 10:58:56;;;;;;;6.70;3.97;;;20.50;44.00;;;;;;5046522;28;20045;-68
2022/12/01 11:01:25;;;;;;;5.65;3.05;;;20.50;44.00;;;;;;5046842;28;20099;-71
2022/12/01 11:03:57;;;;;;;5.38;3.35;;;20.50;43.90;;;;;;5037140;28;20037;-68
2022/12/01 11:06:27;;;;;;;6.47;4.47;;;20.60;43.90;;;;;;5046558;28;20094;-67
2022/12/01 11:08:57;;;;;;;4.03;3.63;;;20.60;43.80;;;;;;5046978;28;20053;-68
2022/12/01 11:11:28;;;;;;;4.35;3.70;;;20.60;43.60;;;;;;5046154;28;20050;-75
2022/12/01 11:13:57;;;;;;;4.55;3.67;;;20.60;43.60;;;;;;5048430;28;20036;-70
2022/12/01 11:16:42;;;;;;;11.32;3.67;;;20.60;43.40;;;;;;5047458;28;20182;-63
2022/12/01 11:19:26;;;;;;;6.50;3.40;;;20.60;43.30;;;;;;5047025;28;20087;-68
2022/12/01 11:21:55;;;;;;;3.83;2.88;;;20.70;43.40;;;;;;5030866;28;20060;-63
2022/12/01 11:24:47;;;;;;;6.43;3.17;;;20.60;43.40;;;;;;5046594;28;20068;-63
2022/12/01 11:27:18;;;;;;;5.30;2.97;;;20.60;43.40;;;;;;5047272;28;20056;-65
2022/12/01 11:29:47;;;;;;;7.20;3.25;;;20.60;43.40;;;;;;5046281;28;20065;-64
2022/12/01 11:32:19;;;;;;;9.75;3.38;;;20.60;43.30;;;;;;5046478;28;20071;-63
2022/12/01 11:34:53;;;;;;;6.68;2.70;;;20.60;43.10;;;;;;5046014;28;20889;-65
2022/12/01 11:37:23;;;;;;;9.40;3.88;;;20.60;42.90;;;;;;5046303;28;20592;-64
2022/12/01 11:39:51;;;;;;;3.80;2.80;;;20.60;42.80;;;;;;5030413;28;20584;-64
2022/12/01 11:42:24;;;;;;;5.97;4.03;;;20.60;42.70;;;;;;5046564;28;20045;-64
2022/12/01 11:44:55;;;;;;;4.63;3.63;;;20.60;42.70;;;;;;5046310;28;20045;-64
2022/12/01 11:47:24;;;;;;;5.97;3.33;;;20.50;42.50;;;;;;5035671;28;20045;-64
2022/12/01 11:49:57;;;;;;;5.88;4.40;;;20.50;42.50;;;;;;5046292;28;20806;-64
2022/12/01 11:52:28;;;;;;;6.95;4.05;;;20.50;42.30;;;;;;5045164;28;20531;-64
2022/12/01 11:54:58;;;;;;;5.50;3.50;;;20.50;42.30;;;;;;5046376;28;20120;-64
2022/12/01 11:57:26;;;;;;;10.30;4.80;;;20.40;42.30;;;;;;5045442;28;20041;-64
2022/12/01 11:59:53;;;;;;;4.75;3.55;;;20.50;42.20;;;;;;5046457;28;20798;-64
2022/12/01 12:02:27;;;;;;;3.40;3.00;;;20.40;42.20;;;;;;5046594;28;20075;-65
2022/12/01 12:05:19;;;;;;;4.47;2.83;;;20.40;42.20;;;;;;5046140;28;20063;-63
2022/12/01 12:07:54;;;;;;;3.08;2.80;;;20.40;42.00;;;;;;5045183;28;20052;-64
2022/12/01 12:10:35;;;;;;;7.07;3.15;;;20.40;42.20;;;;;;5046503;28;20051;-64
2022/12/01 12:13:20;;;;;;;5.18;3.60;;;20.40;42.10;;;;;;5046419;28;20119;-63
2022/12/01 12:15:58;;;;;;;4.40;3.08;;;20.30;41.90;;;;;;5048412;28;20064;-64
2022/12/01 12:18:50;;;;;;;4.32;3.63;;;20.30;41.90;;;;;;5050142;28;20056;-64
2022/12/01 12:21:30;;;;;;;4.70;3.38;;;20.30;41.90;;;;;;5045802;28;20041;-64
2022/12/01 12:24:35;;;;;;;4.03;2.60;;;20.30;41.90;;;;;;5050312;28;20048;-65
2022/12/01 12:27:12;;;;;;;6.18;3.97;;;20.30;41.80;;;;;;5048782;28;20041;-64
2022/12/01 12:29:53;;;;;;;4.47;3.45;;;20.20;41.80;;;;;;5049819;28;20051;-63
2022/12/01 12:32:36;;;;;;;6.43;3.33;;;20.20;41.70;;;;;;5049562;28;20828;-64
2022/12/01 12:35:15;;;;;;;4.32;2.88;;;20.20;41.70;;;;;;5049762;28;20564;-64
2022/12/01 12:37:52;;;;;;;4.53;3.70;;;20.20;41.70;;;;;;5031266;28;20051;-64
2022/12/01 12:40:26;;;;;;;;;;;20.20;41.70;;;;;;5050359;28;20048;-64
2022/12/01 12:43:04;;;;;;;5.60;2.95;;;20.10;41.90;;;;;;5081980;28;20047;-64
2022/12/01 12:45:42;;;;;;;9.32;3.60;;;20.10;41.80;;;;;;5038581;28;20556;-64
2022/12/01 12:48:23;;;;;;;7.30;3.63;;;20.10;41.80;;;;;;5047118;28;20076;-73
2022/12/01 12:50:58;;;;;;;5.78;4.10;;;20.10;42.00;;;;;;5053908;28;20464;-62
2022/12/01 12:53:33;;;;;;;6.82;3.80;;;20.10;42.40;;;;;;5053055;28;20056;-68
2022/12/01 12:56:05;;;;;;;4.63;3.22;;;20.10;42.90;;;;;;5050723;28;20056;-69
2022/12/01 12:58:37;;;;;;;3.85;3.38;;;20.10;43.30;;;;;;5056021;28;20033;-66
2022/12/01 13:01:10;;;;;;;5.50;4.25;;;20.20;43.50;;;;;;5050814;28;20506;-68
2022/12/01 13:03:46;;;;;;;5.85;4.15;;;20.10;43.80;;;;;;5049768;28;20037;-68
2022/12/01 13:06:19;;;;;;;5.70;4.00;;;20.20;44.20;;;;;;5048745;28;20041;-65
2022/12/01 13:08:52;;;;;;;7.22;4.32;;;20.20;43.70;;;;;;5048830;28;20053;-57